Time;durP1;ratioP1;P1;durP2;ratioP2;P2;SDS_P1;SDS_P2;PMS_P1;PMS_P2;Temp;Humidity;BMP_temperature;BMP_pressure;BME280_temperature;BME280_humidity;BME280_pressure;Samples;Min_cycle;Max_cycle;Signal;HPM_P1;HPM_P2
2022/12/16 00:01:30;;;;;;;6.93;4.23;;;0.00;99.90;;;;;;5077831;28;20398;-82
2022/12/16 00:03:57;;;;;;;7.60;4.03;;;0.70;99.90;;;;;;5092726;28;20051;-82
2022/12/16 00:06:25;;;;;;;5.47;3.37;;;-0.10;99.90;;;;;;5077236;28;20078;-82
2022/12/16 00:08:57;;;;;;;6.70;4.20;;;0.00;99.90;;;;;;5077385;28;20054;-82
2022/12/16 00:11:34;;;;;;;6.07;3.33;;;-0.30;99.90;;;;;;5093675;28;20043;-82
2022/12/16 00:14:02;;;;;;;7.73;3.97;;;0.00;99.90;;;;;;5077073;28;20077;-82
2022/12/16 00:16:34;;;;;;;9.10;4.47;;;-0.10;99.90;;;;;;5073691;28;20415;-84
2022/12/16 00:19:03;;;;;;;9.50;3.63;;;1.20;99.90;;;;;;5073912;28;20041;-84
2022/12/16 00:21:29;;;;;;;6.60;3.87;;;;;;;;;;5073775;28;20029;-84
2022/12/16 00:23:56;;;;;;;6.33;4.00;;;-0.30;99.90;;;;;;5059140;28;20044;-84
2022/12/16 00:26:21;;;;;;;6.40;3.00;;;0.30;99.90;;;;;;5060316;28;20082;-84
2022/12/16 00:28:47;;;;;;;5.27;3.10;;;-0.50;99.90;;;;;;5077676;28;20071;-84
2022/12/16 00:31:16;;;;;;;5.47;2.90;;;-0.50;99.90;;;;;;5076940;28;20529;-84
2022/12/16 00:33:42;;;;;;;6.20;2.77;;;-0.50;99.90;;;;;;5076636;28;20165;-82
2022/12/16 00:36:08;;;;;;;7.60;2.80;;;-0.80;99.90;;;;;;5065895;28;20092;-82
2022/12/16 00:38:34;;;;;;;5.67;2.97;;;-0.80;99.90;;;;;;5079708;28;20035;-82
2022/12/16 00:40:59;;;;;;;5.67;2.83;;;-0.90;99.90;;;;;;5080164;28;20500;-82
2022/12/16 00:43:25;;;;;;;5.00;2.53;;;-0.90;99.90;;;;;;5113616;28;20507;-82
2022/12/16 00:45:53;;;;;;;3.93;1.73;;;-1.10;99.90;;;;;;5087209;28;20047;-82
2022/12/16 00:48:22;;;;;;;3.90;2.50;;;-1.20;99.90;;;;;;5042872;28;20129;-82
2022/12/16 00:50:53;;;;;;;3.20;2.17;;;-1.40;99.90;;;;;;5077088;28;20051;-82
2022/12/16 00:53:23;;;;;;;4.90;2.10;;;0.70;99.90;;;;;;5060249;28;20048;-81
2022/12/16 00:55:49;;;;;;;4.03;2.00;;;-1.30;99.90;;;;;;5093260;28;20104;-81
2022/12/16 00:58:17;;;;;;;4.33;2.17;;;-0.90;99.90;;;;;;5076073;28;20048;-81
2022/12/16 01:00:43;;;;;;;8.27;2.50;;;-1.60;99.90;;;;;;5076294;28;20093;-81
2022/12/16 01:03:11;;;;;;;3.77;2.20;;;-1.70;99.90;;;;;;5076081;28;20040;-81
2022/12/16 01:05:38;;;;;;;4.37;2.60;;;0.60;99.90;;;;;;5060316;28;20044;-84
2022/12/16 01:08:04;;;;;;;6.13;2.70;;;-1.90;99.90;;;;;;5076028;28;20051;-84
2022/12/16 01:10:29;;;;;;;5.17;2.47;;;-1.90;99.90;;;;;;5076209;28;20047;-84
2022/12/16 01:12:55;;;;;;;3.67;2.00;;;-2.00;99.90;;;;;;5049805;28;20052;-84
2022/12/16 01:15:21;;;;;;;5.27;2.60;;;-0.80;99.90;;;;;;5059396;28;20083;-84
2022/12/16 01:17:47;;;;;;;3.53;2.00;;;-2.30;99.90;;;;;;5075750;28;20047;-84
2022/12/16 01:20:13;;;;;;;3.93;2.27;;;-2.40;99.90;;;;;;5059328;28;20040;-84
2022/12/16 01:22:39;;;;;;;5.17;2.57;;;-0.40;99.90;;;;;;5092541;28;20028;-84
2022/12/16 01:25:05;;;;;;;6.53;2.53;;;-2.10;99.90;;;;;;5059186;28;20481;-84
2022/12/16 01:27:31;;;;;;;4.27;1.97;;;-2.10;99.90;;;;;;5106617;22;20044;-87
2022/12/16 01:29:57;;;;;;;3.50;1.90;;;0.40;99.90;;;;;;5059723;28;20052;-87
2022/12/16 01:32:23;;;;;;;5.17;2.37;;;0.00;99.90;;;;;;5076229;28;20047;-86
2022/12/16 01:34:53;;;;;;;4.13;1.93;;;-1.60;99.90;;;;;;5059163;28;20051;-86
2022/12/16 01:37:19;;;;;;;11.60;2.50;;;-1.40;99.90;;;;;;5059727;28;20097;-85
2022/12/16 01:39:45;;;;;;;5.93;2.70;;;0.40;99.90;;;;;;5095414;28;20044;-85
2022/12/16 01:42:13;;;;;;;4.80;2.10;;;-1.90;99.90;;;;;;5096626;28;20036;-85
2022/12/16 01:44:42;;;;;;;6.07;2.17;;;-1.90;99.90;;;;;;5079870;28;20526;-86
2022/12/16 01:47:25;;;;;;;4.33;2.20;;;-2.10;99.90;;;;;;5075770;28;20417;-86
2022/12/16 01:50:14;;;;;;;5.90;2.40;;;-0.40;99.90;;;;;;5074135;28;20123;-86
2022/12/16 01:52:45;;;;;;;5.47;2.30;;;-1.90;99.90;;;;;;5065914;28;20040;-86
2022/12/16 01:55:24;;;;;;;5.47;2.97;;;-2.00;99.90;;;;;;5096186;28;20043;-86
2022/12/16 01:58:15;;;;;;;4.77;2.50;;;-2.00;99.90;;;;;;5110038;28;20389;-85
2022/12/16 02:00:41;;;;;;;4.07;1.70;;;-2.00;99.90;;;;;;5075678;28;20058;-85
2022/12/16 02:03:07;;;;;;;4.30;2.00;;;-2.30;99.90;;;;;;5079148;28;20045;-86
2022/12/16 02:05:38;;;;;;;4.37;1.83;;;-2.20;99.90;;;;;;5062180;28;20128;-85
2022/12/16 02:08:15;;;;;;;6.00;3.00;;;-2.10;99.90;;;;;;5096392;28;20042;-86
2022/12/16 02:10:44;;;;;;;4.10;1.80;;;-2.00;99.90;;;;;;5079207;28;20395;-85
2022/12/16 02:13:27;;;;;;;4.73;2.20;;;-2.10;99.90;;;;;;5078792;28;20052;-85
2022/12/16 02:16:10;;;;;;;5.07;2.73;;;-0.40;99.90;;;;;;5076105;28;20048;-85
2022/12/16 02:19:05;;;;;;;5.97;2.40;;;-1.90;99.90;;;;;;5076579;28;20385;-85
2022/12/16 02:21:48;;;;;;;5.50;2.63;;;-2.60;99.90;;;;;;5027432;28;20056;-85
2022/12/16 02:24:29;;;;;;;4.93;2.63;;;-2.00;99.90;;;;;;5095627;28;20043;-85
2022/12/16 02:27:16;;;;;;;4.87;2.23;;;-1.40;99.90;;;;;;5095858;28;20046;-85
2022/12/16 02:29:54;;;;;;;6.37;2.50;;;-1.90;99.90;;;;;;5095641;28;20043;-83
2022/12/16 02:32:41;;;;;;;4.67;2.30;;;-1.70;99.90;;;;;;5095418;28;20492;-83
2022/12/16 02:35:09;;;;;;;5.43;2.57;;;-1.70;99.90;;;;;;5077749;28;20079;-82
2022/12/16 02:37:56;;;;;;;5.40;2.30;;;-0.20;99.90;;;;;;5079538;28;20040;-82
2022/12/16 02:40:33;;;;;;;4.70;2.27;;;-1.60;99.90;;;;;;5096598;28;20390;-82
2022/12/16 02:43:16;;;;;;;6.00;2.57;;;-2.20;99.90;;;;;;5099388;28;20032;-82
2022/12/16 02:45:43;;;;;;;7.17;3.00;;;-1.60;99.90;;;;;;5099182;28;20043;-85
2022/12/16 02:48:08;;;;;;;4.33;2.37;;;-1.40;99.90;;;;;;5082657;28;20035;-86
2022/12/16 02:50:41;;;;;;;7.83;2.90;;;-1.60;99.90;;;;;;5099748;28;20072;-86
2022/12/16 02:53:08;;;;;;;6.63;2.53;;;-1.70;99.90;;;;;;5113125;28;20051;-85
2022/12/16 02:56:17;;;;;;;6.10;2.70;;;-1.50;99.90;;;;;;5062528;28;20126;-86
2022/12/16 02:59:07;;;;;;;4.07;1.87;;;-1.40;99.90;;;;;;5062548;28;20051;-86
2022/12/16 03:01:53;;;;;;;4.97;2.30;;;-1.40;99.90;;;;;;5062416;28;20097;-86
2022/12/16 03:04:24;;;;;;;5.15;2.63;;;-1.40;99.90;;;;;;5078249;28;20496;-82
2022/12/16 03:06:53;;;;;;;5.67;3.00;;;-1.30;99.90;;;;;;5079202;28;20040;-82
2022/12/16 03:09:27;;;;;;;5.47;2.67;;;0.40;99.90;;;;;;5079248;28;20040;-82
2022/12/16 03:11:55;;;;;;;6.50;2.90;;;0.70;99.90;;;;;;5101258;28;20104;-82
2022/12/16 03:14:26;;;;;;;6.90;2.77;;;-1.30;99.90;;;;;;5099334;28;20047;-82
2022/12/16 03:16:52;;;;;;;5.87;2.50;;;-1.30;99.90;;;;;;5117217;28;20431;-82
2022/12/16 03:19:19;;;;;;;5.03;2.27;;;0.80;99.90;;;;;;5081605;28;20505;-86
2022/12/16 03:21:56;;;;;;;7.97;2.70;;;-1.30;99.90;;;;;;5082218;28;20032;-86
2022/12/16 03:24:22;;;;;;;5.33;2.53;;;-1.20;99.90;;;;;;5071557;28;20044;-86
2022/12/16 03:26:57;;;;;;;5.70;2.83;;;-1.90;99.90;;;;;;5062568;28;20782;-86
2022/12/16 03:29:36;;;;;;;7.60;3.03;;;-1.30;99.90;;;;;;5061850;28;20048;-86
2022/12/16 03:32:12;;;;;;;5.20;3.17;;;-1.30;99.90;;;;;;5078944;28;20040;-85
2022/12/16 03:34:53;;;;;;;6.72;2.97;;;-0.10;99.90;;;;;;5104449;28;20477;-86
2022/12/16 03:37:23;;;;;;;4.37;2.50;;;-1.30;99.90;;;;;;5091945;28;20119;-82
2022/12/16 03:39:53;;;;;;;4.00;2.37;;;-0.30;99.90;;;;;;5065428;28;20457;-82
2022/12/16 03:42:19;;;;;;;9.10;3.17;;;-1.30;99.90;;;;;;5098276;28;20039;-83
2022/12/16 03:44:46;;;;;;;5.70;2.67;;;-1.10;99.90;;;;;;5081474;28;20039;-82
2022/12/16 03:47:12;;;;;;;8.00;3.53;;;-1.00;99.90;;;;;;5081780;28;20073;-82
2022/12/16 03:49:38;;;;;;;8.33;3.13;;;-1.50;99.90;;;;;;5081322;28;20044;-83
2022/12/16 03:52:04;;;;;;;5.13;2.60;;;-1.50;99.90;;;;;;5053367;28;20097;-86
2022/12/16 03:54:30;;;;;;;5.70;2.43;;;-1.60;99.90;;;;;;5061142;28;20044;-86
2022/12/16 03:56:56;;;;;;;7.20;2.70;;;-1.60;99.90;;;;;;5088032;28;20044;-86
2022/12/16 03:59:22;;;;;;;9.40;2.67;;;-1.60;99.90;;;;;;5080088;28;20062;-86
2022/12/16 04:01:48;;;;;;;6.67;2.47;;;-1.60;99.90;;;;;;5097306;28;20035;-86
2022/12/16 04:04:15;;;;;;;6.00;2.70;;;-1.60;99.90;;;;;;5097838;28;20100;-86
2022/12/16 04:06:41;;;;;;;4.50;2.30;;;-0.30;99.90;;;;;;5097638;28;20562;-85
2022/12/16 04:09:07;;;;;;;5.23;2.60;;;-1.70;99.90;;;;;;5064049;28;20404;-86
2022/12/16 04:25:34;;;;;;;4.40;2.27;;;-2.20;99.90;;;;;;5076376;28;20099;-83
2022/12/16 04:28:00;;;;;;;6.13;2.87;;;-1.60;99.90;;;;;;5073790;28;20377;-82
2022/12/16 04:30:29;;;;;;;5.30;2.90;;;-1.50;99.90;;;;;;5097068;28;20048;-82
